Time;durP1;ratioP1;P1;durP2;ratioP2;P2;SDS_P1;SDS_P2;PMS_P1;PMS_P2;Temp;Humidity;BMP_temperature;BMP_pressure;BME280_temperature;BME280_humidity;BME280_pressure;Samples;Min_cycle;Max_cycle;Signal;HPM_P1;HPM_P2
2023/04/01 00:06:04;;;;;;;;;;;;;;;;;;5037781;28;6931;-70
2023/04/01 00:08:30;;;;;;;;;;;;;;;;;;5037749;28;6944;-70
2023/04/01 00:10:56;;;;;;;;;;;;;;;;;;5037481;28;7010;-70
2023/04/01 00:13:41;;;;;;;;;;;;;;;;;;5038326;28;7140;-70
2023/04/01 00:16:08;;;;;;;;;;;;;;;;;;5037666;28;7131;-70
2023/04/01 00:18:33;;;;;;;;;;;;;;;;;;5056103;28;8712;-69
2023/04/01 00:20:59;;;;;;;;;;;;;;;;;;5057349;28;7302;-70
2023/04/01 00:23:25;;;;;;;;;;;;;;;;;;5055311;28;7199;-70
2023/04/01 00:26:09;;;;;;;;;;;;;;;;;;5040343;28;7153;-70
2023/04/01 00:28:35;;;;;;;;;;;;;;;;;;5057404;28;7364;-70
2023/04/01 00:31:18;;;;;;;;;;;;;;;;;;5057464;28;7181;-70
2023/04/01 00:33:44;;;;;;;;;;;;;;;;;;5056920;28;7034;-70
2023/04/01 00:42:19;;;;;;;;;;;;;;;;;;5037011;28;6695;-70
2023/04/01 00:44:48;;;;;;;;;;;;;;;;;;5036793;28;7028;-70
2023/04/01 00:47:46;;;;;;;;;;;;;;;;;;5036418;28;7186;-70
2023/04/01 00:50:11;;;;;;;;;;;;;;;;;;5036065;28;7038;-70
2023/04/01 00:52:56;;;;;;;;;;;;;;;;;;5037385;28;6899;-70
2023/04/01 00:55:23;;;;;;;;;;;;;;;;;;5037346;28;7050;-70
2023/04/01 00:57:58;;;;;;;;;;;;;;;;;;5036795;28;6958;-70
2023/04/01 01:00:24;;;;;;;;;;;;;;;;;;5036649;28;7134;-70
2023/04/01 01:03:08;;;;;;;;;;;;;;;;;;5036876;28;7378;-70
2023/04/01 01:05:52;;;;;;;;;;;;;;;;;;5037019;28;7009;-70
2023/04/01 01:08:20;;;;;;;;;;;;;;;;;;5036621;28;7023;-70
2023/04/01 01:10:52;;;;;;;;;;;;;;;;;;5036798;28;7414;-70
2023/04/01 01:13:40;;;;;;;;;;;;;;;;;;5036456;28;7207;-70
2023/04/01 01:19:49;;;;;;;;;;;;;;;;;;4995159;28;7535;-70
2023/04/01 01:22:33;;;;;;;;;;;;;;;;;;4995260;28;7210;-70
2023/04/01 01:25:18;;;;;;;;;;;;;;;;;;4994986;28;7372;-70
2023/04/01 01:37:05;;;;;;;;;;;;;;;;;;4955752;28;6778;-70
2023/04/01 01:39:34;;;;;;;;;;;;;;;;;;4956009;28;7185;-70
2023/04/01 01:42:23;;;;;;;;;;;;;;;;;;4956141;28;7101;-70
2023/04/01 01:44:52;;;;;;;;;;;;;;;;;;4955986;28;6965;-70
2023/04/01 01:47:20;;;;;;;;;;;;;;;;;;4955680;28;7110;-70
2023/04/01 01:49:46;;;;;;;;;;;;;;;;;;4955679;28;7152;-70
2023/04/01 01:52:18;;;;;;;;;;;;;;;;;;4955814;28;7177;-70
2023/04/01 01:54:51;;;;;;;;;;;;;;;;;;4955679;28;7157;-70
2023/04/01 01:57:22;;;;;;;;;;;;;;;;;;4955560;28;7013;-70
2023/04/01 01:59:51;;;;;;;;;;;;;;;;;;4955354;28;7427;-70
2023/04/01 02:02:19;;;;;;;;;;;;;;;;;;4954781;28;7123;-70
2023/04/01 02:04:46;;;;;;;;;;;;;;;;;;4955586;28;7064;-70
2023/04/01 02:10:19;;;;;;;;;;;;;;;;;;4955002;28;6695;-70
2023/04/01 02:12:47;;;;;;;;;;;;;;;;;;4984754;28;7763;-70
2023/04/01 02:18:14;;;;;;;;;;;;;;;;;;5035909;28;6776;-70
2023/04/01 02:20:41;;;;;;;;;;;;;;;;;;5035518;28;6950;-70
2023/04/01 02:23:27;;;;;;;;;;;;;;;;;;5034884;28;7722;-70
2023/04/01 02:25:53;;;;;;;;;;;;;;;;;;5035007;28;7357;-70
2023/04/01 02:28:39;;;;;;;;;;;;;;;;;;5035161;28;7035;-70
2023/04/01 02:31:05;;;;;;;;;;;;;;;;;;5035220;28;6958;-70
2023/04/01 02:36:36;;;;;;;;;;;;;;;;;;5034911;28;6688;-70
2023/04/01 02:39:04;;;;;;;;;;;;;;;;;;5034855;28;7026;-70
2023/04/01 02:41:30;;;;;;;;;;;;;;;;;;5035237;28;7095;-70
2023/04/01 02:47:17;;;;;;;;;;;;;;;;;;5034736;28;6929;-70
2023/04/01 02:49:42;;;;;;;;;;;;;;;;;;5035736;28;6944;-70
2023/04/01 02:52:37;;;;;;;;;;;;;;;;;;5034755;28;7111;-70
2023/04/01 02:55:03;;;;;;;;;;;;;;;;;;5034777;28;7034;-70
2023/04/01 03:00:37;;;;;;;;;;;;;;;;;;5034641;28;6927;-71
2023/04/01 03:03:04;;;;;;;;;;;;;;;;;;5034693;28;7335;-72
2023/04/01 03:05:36;;;;;;;;;;;;;;;;;;5034833;28;7232;-72
2023/04/01 03:08:02;;;;;;;;;;;;;;;;;;5034353;28;6827;-72
2023/04/01 03:13:37;;;;;;;;;;;;;;;;;;4994719;28;6730;-72
2023/04/01 03:16:28;;;;;;;;;;;;;;;;;;4996205;28;6927;-72
2023/04/01 03:18:56;;;;;;;;;;;;;;;;;;4995115;28;7198;-72
2023/04/01 03:21:35;;;;;;;;;;;;;;;;;;4995230;28;7037;-72
2023/04/01 03:24:01;;;;;;;;;;;;;;;;;;4994902;28;7026;-72
2023/04/01 03:26:27;;;;;;;;;;;;;;;;;;4999873;28;7378;-72
2023/04/01 03:32:13;;;;;;;;;;;;;;;;;;4994813;28;6932;-72
2023/04/01 03:34:39;;;;;;;;;;;;;;;;;;4995438;28;7168;-72
2023/04/01 03:37:09;;;;;;;;;;;;;;;;;;4995039;28;7084;-72
2023/04/01 03:39:35;;;;;;;;;;;;;;;;;;5028509;28;7068;-72
2023/04/01 03:42:06;;;;;;;;;;;;;;;;;;5034384;28;7029;-72
2023/04/01 03:44:32;;;;;;;;;;;;;;;;;;5034183;28;7314;-72
2023/04/01 03:53:03;;;;;;;;;;;;;;;;;;5033822;28;6934;-72
2023/04/01 03:55:39;;;;;;;;;;;;;;;;;;5034304;28;6990;-72
2023/04/01 03:58:05;;;;;;;;;;;;;;;;;;5034060;28;7407;-72
2023/04/01 04:00:45;;;;;;;;;;;;;;;;;;5034198;28;6987;-72
2023/04/01 04:03:11;;;;;;;;;;;;;;;;;;5034232;28;7049;-71
2023/04/01 04:11:42;;;;;;;;;;;;;;;;;;5023733;28;6698;-71
2023/04/01 04:17:42;;;;;;;;;;;;;;;;;;5053690;28;6678;-67
2023/04/01 04:20:08;;;;;;;;;;;;;;;;;;5054305;28;7172;-70
2023/04/01 04:22:34;;;;;;;;;;;;;;;;;;5053804;28;7410;-70
2023/04/01 04:28:02;;;;;;;;;;;;;;;;;;5037186;28;6915;-70
2023/04/01 04:30:28;;;;;;;;;;;;;;;;;;5055495;23;6988;-70
2023/04/01 04:33:01;;;;;;;;;;;;;;;;;;5017693;28;7205;-70
2023/04/01 04:35:27;;;;;;;;;;;;;;;;;;5017511;28;7308;-70
2023/04/01 04:43:58;;;;;;;;;;;;;;;;;;4998170;28;6690;-73
2023/04/01 04:46:26;;;;;;;;;;;;;;;;;;4997722;28;6953;-73
2023/04/01 04:48:56;;;;;;;;;;;;;;;;;;5016148;28;7224;-73
2023/04/01 04:51:22;;;;;;;;;;;;;;;;;;5017297;28;7146;-73
2023/04/01 04:54:08;;;;;;;;;;;;;;;;;;5017220;28;7397;-73
2023/04/01 04:56:33;;;;;;;;;;;;;;;;;;5017487;28;7062;-73
2023/04/01 04:59:08;;;;;;;;;;;;;;;;;;5016845;28;7164;-73
2023/04/01 05:01:33;;;;;;;;;;;;;;;;;;5004058;28;7051;-73
2023/04/01 05:03:59;;;;;;;;;;;;;;;;;;4997609;28;7063;-73
2023/04/01 05:06:29;;;;;;;;;;;;;;;;;;5011994;28;7174;-73
2023/04/01 05:08:55;;;;;;;;;;;;;;;;;;5016731;28;7194;-73
2023/04/01 05:11:20;;;;;;;;;;;;;;;;;;5008686;28;7212;-73
2023/04/01 05:13:46;;;;;;;;;;;;;;;;;;5017048;28;6932;-73
2023/04/01 05:16:17;;;;;;;;;;;;;;;;;;5016772;28;7210;-73
2023/04/01 05:21:52;;;;;;;;;;;;;;;;;;5016578;28;6691;-70
2023/04/01 05:24:18;;;;;;;;;;;;;;;;;;5016888;28;7048;-72
2023/04/01 05:26:43;;;;;;;;;;;;;;;;;;5017096;28;6952;-72
2023/04/01 05:29:09;;;;;;;;;;;;;;;;;;5011267;28;6951;-72
2023/04/01 05:31:35;;;;;;;;;;;;;;;;;;5016597;28;7382;-72
2023/04/01 05:34:20;;;;;;;;;;;;;;;;;;5016238;28;6936;-72
2023/04/01 05:36:45;;;;;;;;;;;;;;;;;;5016236;28;7055;-72
2023/04/01 05:39:28;;;;;;;;;;;;;;;;;;5016469;28;7117;-68
2023/04/01 05:41:54;;;;;;;;;;;;;;;;;;5016482;28;7282;-68
2023/04/01 05:44:19;;;;;;;;;;;;;;;;;;5016331;28;7074;-68
2023/04/01 05:46:45;;;;;;;;;;;;;;;;;;5016163;28;7047;-68
2023/04/01 05:49:21;;;;;;;;;;;;;;;;;;5016338;28;7480;-68
2023/04/01 05:51:47;;;;;;;;;;;;;;;;;;5016082;28;7099;-68
2023/04/01 05:57:17;;;;;;;;;;;;;;;;;;5015973;28;6937;-68
2023/04/01 05:59:44;;;;;;;;;;;;;;;;;;5015678;28;7194;-68
2023/04/01 06:02:10;;;;;;;;;;;;;;;;;;5015920;28;7548;-68
2023/04/01 06:04:40;;;;;;;;;;;;;;;;;;5015560;28;7107;-68
2023/04/01 06:07:20;;;;;;;;;;;;;;;;;;5016109;28;7156;-68
2023/04/01 06:09:46;;;;;;;;;;;;;;;;;;5015725;28;7222;-67
2023/04/01 06:12:23;;;;;;;;;;;;;;;;;;5015793;28;6817;-68
2023/04/01 06:14:57;;;;;;;;;;;;;;;;;;5015703;28;7281;-68
2023/04/01 06:20:50;;;;;;;;;;;;;;;;;;5015391;28;6978;-69
2023/04/01 06:23:15;;;;;;;;;;;;;;;;;;5016705;28;7053;-68
2023/04/01 06:26:01;;;;;;;;;;;;;;;;;;5015505;28;7401;-68
2023/04/01 06:28:33;;;;;;;;;;;;;;;;;;5015484;28;7098;-69
2023/04/01 06:31:12;;;;;;;;;;;;;;;;;;5014063;28;7829;-68
2023/04/01 06:34:01;;;;;;;;;;;;;;;;;;5016008;28;7081;-68
2023/04/01 06:36:33;;;;;;;;;;;;;;;;;;5015304;28;7493;-68
2023/04/01 06:39:27;;;;;;;;;;;;;;;;;;5015385;28;7265;-69
2023/04/01 06:42:02;;;;;;;;;;;;;;;;;;5015225;28;7423;-68
2023/04/01 06:47:20;;;;;;;;;;;;;;;;;;5015074;28;6942;-68
2023/04/01 06:52:39;;;;;;;;;;;;;;;;;;5004315;28;7084;-71
2023/04/01 06:58:18;;;;;;;;;;;;;;;;;;5014616;28;6733;-70
2023/04/01 07:00:47;;;;;;;;;;;;;;;;;;5014923;28;7497;-74
2023/04/01 07:06:41;;;;;;;;;;;;;;;;;;5014802;28;6715;-76
2023/04/01 07:09:13;;;;;;;;;;;;;;;;;;5014936;28;7273;-77
2023/04/01 07:12:10;;;;;;;;;;;;;;;;;;5014562;28;7175;-74
2023/04/01 07:14:38;;;;;;;;;;;;;;;;;;5014512;28;8554;-73
2023/04/01 07:20:16;;;;;;;;;;;;;;;;;;5014466;28;6937;-74
2023/04/01 07:23:09;;;;;;;;;;;;;;;;;;5014756;28;7038;-75
2023/04/01 07:25:42;;;;;;;;;;;;;;;;;;5013729;28;7043;-74
2023/04/01 07:28:12;;;;;;;;;;;;;;;;;;5014717;28;7138;-74
2023/04/01 07:33:54;;;;;;;;;;;;;;;;;;5014015;28;6951;-74
2023/04/01 07:36:32;;;;;;;;;;;;;;;;;;5001911;28;6962;-74
2023/04/01 07:39:01;;;;;;;;;;;;;;;;;;5009272;28;7153;-74
2023/04/01 07:47:30;;;;;;;;;;;;;;;;;;5014692;28;6959;-74
2023/04/01 08:09:10;;;;;;;;;;;;;;;;;;5018089;28;6942;-73
2023/04/01 08:12:02;;;;;;;;;;;;;;;;;;5018003;28;7139;-73
2023/04/01 08:14:27;;;;;;;;;;;;;;;;;;5018090;28;7168;-73
2023/04/01 08:17:03;;;;;;;;;;;;;;;;;;5017915;28;7122;-73
2023/04/01 08:19:49;;;;;;;;;;;;;;;;;;5017669;28;7038;-73
2023/04/01 08:28:31;;;;;;;;;;;;;;;;;;5017544;28;6676;-73
2023/04/01 08:33:55;;;;;;;;;;;;;;;;;;5017792;28;6952;-74
2023/04/01 08:39:47;;;;;;;;;;;;;;;;;;5017436;28;6747;-74
2023/04/01 08:42:28;;;;;;;;;;;;;;;;;;5017484;28;7143;-74
2023/04/01 08:45:12;;;;;;;;;;;;;;;;;;5017485;28;7150;-74
2023/04/01 08:47:38;;;;;;;;;;;;;;;;;;5017411;28;7176;-74
2023/04/01 08:50:20;;;;;;;;;;;;;;;;;;5017316;28;7492;-74
2023/04/01 08:52:48;;;;;;;;;;;;;;;;;;5017181;28;7230;-74
2023/04/01 08:55:29;;;;;;;;;;;;;;;;;;5017219;28;7291;-74
2023/04/01 08:58:15;;;;;;;;;;;;;;;;;;5017008;28;7163;-74
2023/04/01 09:00:49;;;;;;;;;;;;;;;;;;5017119;28;7081;-74
2023/04/01 09:03:35;;;;;;;;;;;;;;;;;;5016803;28;7162;-74
2023/04/01 09:09:08;;;;;;;;;;;;;;;;;;5017173;28;6865;-70
2023/04/01 09:12:00;;;;;;;;;;;;;;;;;;5017062;28;7152;-70
2023/04/01 09:14:29;;;;;;;;;;;;;;;;;;5016749;28;8185;-70
2023/04/01 09:16:57;;;;;;;;;;;;;;;;;;5016742;28;7045;-70
2023/04/01 09:22:29;;;;;;;;;;;;;;;;;;5014650;28;6800;-70
2023/04/01 09:24:54;;;;;;;;;;;;;;;;;;5016635;28;7162;-70
2023/04/01 09:27:36;;;;;;;;;;;;;;;;;;5016472;28;7371;-70
2023/04/01 09:36:31;;;;;;;;;;;;;;;;;;4961860;28;7166;-71
2023/04/01 09:39:17;;;;;;;;;;;;;;;;;;4969812;28;7046;-72
2023/04/01 09:41:45;;;;;;;;;;;;;;;;;;4956159;28;7157;-72
2023/04/01 09:44:22;;;;;;;;;;;;;;;;;;4975415;28;7087;-72
2023/04/01 09:47:06;;;;;;;;;;;;;;;;;;4975131;28;7482;-72
2023/04/01 09:49:47;;;;;;;;;;;;;;;;;;4975338;28;7141;-72
2023/04/01 09:52:25;;;;;;;;;;;;;;;;;;4974992;28;7170;-69
2023/04/01 09:55:25;;;;;;;;;;;;;;;;;;4975254;28;6816;-68
2023/04/01 10:13:03;;;;;;;;;;;;;;;;;;4994225;28;7029;-68
2023/04/01 10:15:52;;;;;;;;;;;;;;;;;;4994355;28;7418;-68
2023/04/01 10:18:32;;;;;;;;;;;;;;;;;;4994268;28;7242;-68
2023/04/01 10:21:27;;;;;;;;;;;;;;;;;;4994320;28;7255;-68
2023/04/01 10:23:55;;;;;;;;;;;;;;;;;;4976772;28;8371;-68
2023/04/01 10:29:29;;;;;;;;;;;;;;;;;;4983516;28;7072;-67
2023/04/01 10:32:24;;;;;;;;;;;;;;;;;;4993914;28;7145;-67
2023/04/01 10:35:08;;;;;;;;;;;;;;;;;;4994291;28;7053;-67
2023/04/01 10:38:05;;;;;;;;;;;;;;;;;;4993285;28;7375;-68
2023/04/01 10:40:38;;;;;;;;;;;;;;;;;;4993503;28;7211;-68
2023/04/01 10:43:26;;;;;;;;;;;;;;;;;;4993615;28;7169;-68
2023/04/01 10:45:52;;;;;;;;;;;;;;;;;;4996305;28;7149;-67
2023/04/01 10:48:38;;;;;;;;;;;;;;;;;;5015150;28;7191;-68
2023/04/01 10:51:17;;;;;;;;;;;;;;;;;;5014838;28;7251;-68
2023/04/01 10:54:01;;;;;;;;;;;;;;;;;;5015059;28;7058;-67
2023/04/01 10:56:40;;;;;;;;;;;;;;;;;;5014996;28;7379;-67
2023/04/01 11:02:45;;;;;;;;;;;;;;;;;;5014933;28;6903;-68
2023/04/01 11:05:29;;;;;;;;;;;;;;;;;;5014358;28;7008;-69
2023/04/01 11:08:13;;;;;;;;;;;;;;;;;;5014682;28;7164;-68
2023/04/01 11:10:47;;;;;;;;;;;;;;;;;;5014812;28;7168;-69
2023/04/01 11:13:36;;;;;;;;;;;;;;;;;;5015234;28;7375;-68
2023/04/01 11:16:20;;;;;;;;;;;;;;;;;;5014942;28;7407;-70
2023/04/01 11:18:54;;;;;;;;;;;;;;;;;;5014527;28;7064;-68
2023/04/01 11:24:41;;;;;;;;;;;;;;;;;;5006874;28;6693;-67
2023/04/01 11:30:35;;;;;;;;;;;;;;;;;;4992535;28;7079;-68
2023/04/01 11:33:06;;;;;;;;;;;;;;;;;;4995184;28;7437;-68
2023/04/01 11:35:34;;;;;;;;;;;;;;;;;;4999554;28;7358;-68
2023/04/01 11:38:23;;;;;;;;;;;;;;;;;;4999077;28;7533;-68
2023/04/01 11:40:52;;;;;;;;;;;;;;;;;;4998213;28;7236;-68
2023/04/01 11:43:49;;;;;;;;;;;;;;;;;;5004775;28;7075;-68
2023/04/01 11:46:28;;;;;;;;;;;;;;;;;;5018178;28;7205;-68
2023/04/01 11:49:24;;;;;;;;;;;;;;;;;;5018986;28;7072;-68
2023/04/01 11:55:10;;;;;;;;;;;;;;;;;;5018487;28;6811;-68
2023/04/01 12:09:58;;;;;;;;;;;;;;;;;;5017836;28;6941;-68
2023/04/01 12:13:00;;;;;;;;;;;;;;;;;;5018069;28;7120;-67
2023/04/01 12:15:36;;;;;;;;;;;;;;;;;;5017743;28;8240;-67
2023/04/01 12:20:53;;;;;;;;;;;;;;;;;;5018019;28;6926;-67
2023/04/01 12:32:45;;;;;;;;;;;;;;;;;;5016000;28;6843;-68
2023/04/01 12:35:13;;;;;;;;;;;;;;;;;;5007509;28;7400;-67
2023/04/01 12:41:00;;;;;;;;;;;;;;;;;;5010714;28;6965;-68
2023/04/01 12:43:54;;;;;;;;;;;;;;;;;;5017489;28;7135;-67
2023/04/01 12:46:20;;;;;;;;;;;;;;;;;;4995685;28;7123;-68
2023/04/01 12:49:04;;;;;;;;;;;;;;;;;;5017198;28;7246;-68
2023/04/01 12:51:38;;;;;;;;;;;;;;;;;;4997507;28;7771;-67
2023/04/01 12:57:32;;;;;;;;;;;;;;;;;;5017117;28;6724;-68
2023/04/01 12:59:58;;;;;;;;;;;;;;;;;;5017219;28;7343;-68
2023/04/01 13:02:27;;;;;;;;;;;;;;;;;;5016668;28;6985;-67
2023/04/01 13:05:22;;;;;;;;;;;;;;;;;;5010118;28;7670;-68
2023/04/01 13:07:51;;;;;;;;;;;;;;;;;;5011437;28;7039;-69
2023/04/01 13:10:52;;;;;;;;;;;;;;;;;;5011089;28;7433;-69
2023/04/01 13:13:37;;;;;;;;;;;;;;;;;;5011073;28;7112;-68
2023/04/01 13:19:08;;;;;;;;;;;;;;;;;;5021918;28;6985;-68
2023/04/01 13:24:39;;;;;;;;;;;;;;;;;;5036159;28;6935;-69
2023/04/01 13:30:31;;;;;;;;;;;;;;;;;;5034219;28;6698;-67
2023/04/01 13:33:34;;;;;;;;;;;;;;;;;;4990906;28;7156;-68
2023/04/01 13:35:59;;;;;;;;;;;;;;;;;;4997006;28;7041;-67
2023/04/01 13:38:43;;;;;;;;;;;;;;;;;;5005533;28;7384;-67
2023/04/01 13:41:24;;;;;;;;;;;;;;;;;;5016424;28;7672;-68
2023/04/01 13:44:11;;;;;;;;;;;;;;;;;;5016375;28;7473;-68
2023/04/01 13:49:53;;;;;;;;;;;;;;;;;;5016539;28;6933;-68
2023/04/01 13:52:37;;;;;;;;;;;;;;;;;;5016483;28;7646;-68
2023/04/01 13:55:21;;;;;;;;;;;;;;;;;;5016116;28;7247;-68
2023/04/01 13:57:46;;;;;;;;;;;;;;;;;;5015760;28;6967;-68
2023/04/01 14:00:45;;;;;;;;;;;;;;;;;;5016170;28;7144;-68
2023/04/01 14:03:20;;;;;;;;;;;;;;;;;;5016242;28;7113;-68
2023/04/01 14:06:15;;;;;;;;;;;;;;;;;;5015956;28;7139;-68
2023/04/01 14:08:46;;;;;;;;;;;;;;;;;;5015743;28;6962;-82
2023/04/01 14:11:31;;;;;;;;;;;;;;;;;;5007522;28;6820;-68
2023/04/01 14:14:02;;;;;;;;;;;;;;;;;;5009213;28;7078;-68
2023/04/01 14:19:53;;;;;;;;;;;;;;;;;;5015876;28;6694;-68
2023/04/01 14:22:46;;;;;;;;;;;;;;;;;;5010644;28;7131;-67
2023/04/01 14:25:43;;;;;;;;;;;;;;;;;;4993686;28;7207;-67
2023/04/01 14:28:09;;;;;;;;;;;;;;;;;;5008688;28;7344;-67
2023/04/01 14:31:01;;;;;;;;;;;;;;;;;;5015902;28;7038;-68
2023/04/01 14:33:34;;;;;;;;;;;;;;;;;;5015389;28;7504;-68
2023/04/01 14:36:03;;;;;;;;;;;;;;;;;;5015510;28;7439;-68
2023/04/01 14:38:28;;;;;;;;;;;;;;;;;;5013242;28;7041;-67
2023/04/01 14:44:15;;;;;;;;;;;;;;;;;;4995994;28;6974;-67
2023/04/01 14:47:14;;;;;;;;;;;;;;;;;;5002795;28;7246;-67
2023/04/01 14:49:44;;;;;;;;;;;;;;;;;;5015129;28;7329;-68
2023/04/01 14:52:36;;;;;;;;;;;;;;;;;;4998524;28;7042;-67
2023/04/01 14:58:11;;;;;;;;;;;;;;;;;;5002394;28;6801;-68
2023/04/01 15:07:00;;;;;;;;;;;;;;;;;;4995610;28;6966;-67
2023/04/01 15:09:31;;;;;;;;;;;;;;;;;;4995595;28;7401;-67
2023/04/01 15:12:06;;;;;;;;;;;;;;;;;;4995215;28;7042;-67
2023/04/01 15:14:43;;;;;;;;;;;;;;;;;;4995247;28;7099;-67
2023/04/01 15:20:31;;;;;;;;;;;;;;;;;;5013162;28;7028;-67
2023/04/01 15:23:15;;;;;;;;;;;;;;;;;;5014795;28;7120;-68
2023/04/01 15:28:56;;;;;;;;;;;;;;;;;;5014501;28;7057;-67
2023/04/01 15:31:40;;;;;;;;;;;;;;;;;;5014410;28;7141;-67
2023/04/01 15:34:24;;;;;;;;;;;;;;;;;;5014593;28;6947;-67
2023/04/01 15:36:58;;;;;;;;;;;;;;;;;;5015006;28;7081;-67
2023/04/01 15:39:56;;;;;;;;;;;;;;;;;;5014602;28;7330;-67
2023/04/01 15:48:42;;;;;;;;;;;;;;;;;;4998194;28;6939;-67
2023/04/01 15:54:32;;;;;;;;;;;;;;;;;;4994626;28;6681;-67
2023/04/01 15:57:10;;;;;;;;;;;;;;;;;;4994879;28;7114;-67
2023/04/01 15:59:54;;;;;;;;;;;;;;;;;;4997095;28;7159;-67
2023/04/01 16:02:20;;;;;;;;;;;;;;;;;;5011155;28;6936;-67
2023/04/01 16:04:48;;;;;;;;;;;;;;;;;;4994475;28;6899;-67
2023/04/01 16:10:30;;;;;;;;;;;;;;;;;;4994799;28;6785;-67
2023/04/01 16:13:15;;;;;;;;;;;;;;;;;;4994910;28;7075;-67
2023/04/01 16:16:06;;;;;;;;;;;;;;;;;;4994757;28;7055;-68
2023/04/01 16:18:34;;;;;;;;;;;;;;;;;;4994599;28;7419;-67
2023/04/01 16:21:00;;;;;;;;;;;;;;;;;;4995696;28;7089;-67
2023/04/01 16:30:09;;;;;;;;;;;;;;;;;;4997920;28;6947;-67
2023/04/01 16:35:48;;;;;;;;;;;;;;;;;;4957359;28;6967;-67
2023/04/01 16:38:16;;;;;;;;;;;;;;;;;;4957036;28;7368;-67
2023/04/01 16:41:00;;;;;;;;;;;;;;;;;;4957728;28;7198;-67
2023/04/01 16:43:35;;;;;;;;;;;;;;;;;;4957105;28;7100;-67
2023/04/01 16:52:09;;;;;;;;;;;;;;;;;;4957106;28;6678;-67
2023/04/01 16:54:44;;;;;;;;;;;;;;;;;;4956868;28;7230;-67
2023/04/01 16:57:10;;;;;;;;;;;;;;;;;;4956882;28;7205;-67
2023/04/01 16:59:41;;;;;;;;;;;;;;;;;;4956934;28;7484;-67
2023/04/01 17:02:06;;;;;;;;;;;;;;;;;;4975966;28;7228;-67
2023/04/01 17:04:52;;;;;;;;;;;;;;;;;;5016154;28;7386;-67
2023/04/01 17:07:18;;;;;;;;;;;;;;;;;;5017288;28;7432;-67
2023/04/01 17:09:43;;;;;;;;;;;;;;;;;;5016534;28;7439;-67
2023/04/01 17:12:38;;;;;;;;;;;;;;;;;;5017109;28;6798;-67
2023/04/01 17:18:41;;;;;;;;;;;;;;;;;;4975877;28;7080;-67
2023/04/01 17:21:15;;;;;;;;;;;;;;;;;;5017664;28;7189;-67
2023/04/01 17:24:13;;;;;;;;;;;;;;;;;;5017584;28;7124;-67
2023/04/01 17:27:04;;;;;;;;;;;;;;;;;;4975509;28;7352;-67
2023/04/01 17:29:29;;;;;;;;;;;;;;;;;;4975526;28;7072;-67
2023/04/01 17:32:16;;;;;;;;;;;;;;;;;;4971649;28;7047;-67
2023/04/01 17:34:47;;;;;;;;;;;;;;;;;;4974897;28;7201;-67
2023/04/01 17:58:39;;;;;;;;;;;;;;;;;;4969263;28;7178;-67
2023/04/01 18:01:27;;;;;;;;;;;;;;;;;;4956136;28;7613;-67
2023/04/01 18:03:56;;;;;;;;;;;;;;;;;;5002937;28;7291;-68
2023/04/01 18:06:36;;;;;;;;;;;;;;;;;;5016025;28;7155;-67
2023/04/01 18:09:19;;;;;;;;;;;;;;;;;;5015780;28;7269;-67
2023/04/01 18:15:30;;;;;;;;;;;;;;;;;;5016008;28;7024;-67
2023/04/01 18:18:15;;;;;;;;;;;;;;;;;;5015641;28;7052;-67
2023/04/01 18:23:43;;;;;;;;;;;;;;;;;;4997985;28;6957;-67
2023/04/01 18:26:32;;;;;;;;;;;;;;;;;;4996058;28;7186;-67
2023/04/01 18:29:04;;;;;;;;;;;;;;;;;;4996099;28;7739;-67
2023/04/01 18:31:55;;;;;;;;;;;;;;;;;;4995598;28;7074;-67
2023/04/01 18:34:39;;;;;;;;;;;;;;;;;;4996130;28;7390;-67
2023/04/01 18:40:25;;;;;;;;;;;;;;;;;;4998490;28;6732;-67
2023/04/01 18:43:03;;;;;;;;;;;;;;;;;;4995723;28;7156;-67
2023/04/01 18:45:35;;;;;;;;;;;;;;;;;;4995304;28;7351;-67
2023/04/01 18:48:28;;;;;;;;;;;;;;;;;;4995409;28;7145;-67
2023/04/01 18:51:02;;;;;;;;;;;;;;;;;;4996680;28;7044;-67
2023/04/01 18:53:40;;;;;;;;;;;;;;;;;;4994839;28;6999;-67
2023/04/01 18:56:11;;;;;;;;;;;;;;;;;;4997144;28;8771;-67
2023/04/01 18:59:13;;;;;;;;;;;;;;;;;;5014982;28;7171;-67
2023/04/01 19:05:00;;;;;;;;;;;;;;;;;;5014647;28;7432;-67
2023/04/01 19:07:44;;;;;;;;;;;;;;;;;;5014933;28;7386;-67
2023/04/01 19:22:48;;;;;;;;;;;;;;;;;;5002498;28;6678;-67
2023/04/01 19:31:11;;;;;;;;;;;;;;;;;;5014656;28;6976;-67
2023/04/01 19:37:00;;;;;;;;;;;;;;;;;;5014476;28;6705;-67
2023/04/01 19:39:28;;;;;;;;;;;;;;;;;;5002925;28;7364;-67
2023/04/01 19:44:57;;;;;;;;;;;;;;;;;;4996745;28;6981;-67
2023/04/01 19:53:44;;;;;;;;;;;;;;;;;;5009116;28;6706;-67
2023/04/01 19:56:12;;;;;;;;;;;;;;;;;;5013163;28;7296;-67
2023/04/01 19:58:55;;;;;;;;;;;;;;;;;;5008557;28;8975;-67
2023/04/01 20:04:54;;;;;;;;;;;;;;;;;;5009743;28;7157;-67
2023/04/01 20:07:20;;;;;;;;;;;;;;;;;;5015165;28;7253;-67
2023/04/01 20:12:35;;;;;;;;;;;;;;;;;;5000288;28;6953;-67
2023/04/01 20:15:27;;;;;;;;;;;;;;;;;;5006184;28;6983;-66
2023/04/01 20:17:57;;;;;;;;;;;;;;;;;;5017902;28;7048;-66
2023/04/01 20:20:31;;;;;;;;;;;;;;;;;;5017951;28;7102;-67
2023/04/01 20:23:03;;;;;;;;;;;;;;;;;;5017987;28;7140;-67
2023/04/01 20:28:17;;;;;;;;;;;;;;;;;;5017817;28;7123;-67
2023/04/01 20:33:25;;;;;;;;;;;;;;;;;;5017409;28;6939;-67
2023/04/01 20:36:24;;;;;;;;;;;;;;;;;;5017690;28;7057;-67
2023/04/01 20:38:52;;;;;;;;;;;;;;;;;;5013920;28;7247;-67
2023/04/01 20:41:34;;;;;;;;;;;;;;;;;;5006420;28;7057;-67
2023/04/01 20:44:05;;;;;;;;;;;;;;;;;;5016798;28;7340;-67
2023/04/01 20:52:49;;;;;;;;;;;;;;;;;;4997813;28;6742;-67
2023/04/01 20:55:28;;;;;;;;;;;;;;;;;;4997723;28;7174;-67
2023/04/01 20:57:56;;;;;;;;;;;;;;;;;;5000520;28;7060;-66
2023/04/01 21:03:23;;;;;;;;;;;;;;;;;;5003022;28;6954;-67
2023/04/01 21:06:07;;;;;;;;;;;;;;;;;;5006483;28;8725;-67
2023/04/01 21:08:51;;;;;;;;;;;;;;;;;;5012637;28;7335;-67
2023/04/01 21:11:22;;;;;;;;;;;;;;;;;;5011950;28;7077;-67
2023/04/01 21:17:14;;;;;;;;;;;;;;;;;;5005403;28;6960;-67
2023/04/01 21:20:01;;;;;;;;;;;;;;;;;;5016673;28;7141;-67
2023/04/01 21:25:27;;;;;;;;;;;;;;;;;;5016627;28;7518;-67
2023/04/01 21:28:28;;;;;;;;;;;;;;;;;;5016459;28;6970;-67
2023/04/01 21:31:12;;;;;;;;;;;;;;;;;;5016553;28;7140;-67
2023/04/01 21:33:58;;;;;;;;;;;;;;;;;;5016262;28;7169;-67
2023/04/01 21:36:35;;;;;;;;;;;;;;;;;;5012234;28;7228;-66
2023/04/01 21:39:17;;;;;;;;;;;;;;;;;;5009618;28;7219;-67
2023/04/01 21:41:51;;;;;;;;;;;;;;;;;;5016458;28;7068;-66
2023/04/01 21:44:30;;;;;;;;;;;;;;;;;;5009139;28;7373;-66
2023/04/01 21:46:56;;;;;;;;;;;;;;;;;;5006452;28;7198;-66
2023/04/01 21:49:57;;;;;;;;;;;;;;;;;;5013641;28;7169;-66
2023/04/01 21:52:25;;;;;;;;;;;;;;;;;;5008578;28;7474;-67
2023/04/01 21:55:24;;;;;;;;;;;;;;;;;;5013592;28;7272;-66
2023/04/01 21:57:50;;;;;;;;;;;;;;;;;;4974649;28;6975;-67
2023/04/01 22:00:18;;;;;;;;;;;;;;;;;;5007906;28;7070;-67
2023/04/01 22:03:07;;;;;;;;;;;;;;;;;;5010220;28;7349;-67
2023/04/01 22:05:44;;;;;;;;;;;;;;;;;;5002413;28;7214;-67
2023/04/01 22:08:46;;;;;;;;;;;;;;;;;;5013478;28;6962;-66
2023/04/01 22:14:23;;;;;;;;;;;;;;;;;;5009883;28;7169;-67
2023/04/01 22:16:50;;;;;;;;;;;;;;;;;;5010397;28;6981;-67
2023/04/01 22:22:06;;;;;;;;;;;;;;;;;;5010008;28;6789;-66
2023/04/01 22:28:11;;;;;;;;;;;;;;;;;;5010266;28;6741;-67
2023/04/01 22:30:45;;;;;;;;;;;;;;;;;;4995525;28;7767;-66
2023/04/01 22:33:18;;;;;;;;;;;;;;;;;;4995231;28;7314;-66
2023/04/01 22:39:05;;;;;;;;;;;;;;;;;;5012797;28;6784;-67
2023/04/01 22:44:25;;;;;;;;;;;;;;;;;;4999285;28;6789;-67
2023/04/01 22:50:20;;;;;;;;;;;;;;;;;;5013090;28;6954;-67
2023/04/01 22:52:48;;;;;;;;;;;;;;;;;;5013364;28;7384;-67
2023/04/01 22:55:30;;;;;;;;;;;;;;;;;;5013402;28;7029;-67
2023/04/01 22:58:03;;;;;;;;;;;;;;;;;;4995108;28;6954;-67
2023/04/01 23:03:34;;;;;;;;;;;;;;;;;;4995319;28;6922;-67
2023/04/01 23:06:01;;;;;;;;;;;;;;;;;;4995121;28;7171;-66
2023/04/01 23:08:33;;;;;;;;;;;;;;;;;;4995400;28;7361;-67
2023/04/01 23:11:02;;;;;;;;;;;;;;;;;;4995575;28;7201;-67
2023/04/01 23:13:33;;;;;;;;;;;;;;;;;;4994595;28;7169;-67
2023/04/01 23:16:02;;;;;;;;;;;;;;;;;;4995383;28;7024;-67
2023/04/01 23:18:35;;;;;;;;;;;;;;;;;;4995304;28;7137;-67
2023/04/01 23:21:24;;;;;;;;;;;;;;;;;;4995081;28;6952;-66
2023/04/01 23:23:59;;;;;;;;;;;;;;;;;;4995237;28;7218;-66
2023/04/01 23:26:35;;;;;;;;;;;;;;;;;;4994889;28;7206;-66
2023/04/01 23:29:01;;;;;;;;;;;;;;;;;;4995262;28;7139;-66
2023/04/01 23:31:30;;;;;;;;;;;;;;;;;;5016809;28;6948;-66
2023/04/01 23:33:58;;;;;;;;;;;;;;;;;;5018839;28;7330;-67
2023/04/01 23:36:35;;;;;;;;;;;;;;;;;;5018582;28;7914;-66
2023/04/01 23:39:03;;;;;;;;;;;;;;;;;;5018872;28;7289;-67
2023/04/01 23:41:32;;;;;;;;;;;;;;;;;;5018630;28;7598;-67
2023/04/01 23:44:24;;;;;;;;;;;;;;;;;;5018798;28;7041;-67
2023/04/01 23:46:51;;;;;;;;;;;;;;;;;;5019450;28;7196;-67
2023/04/01 23:49:50;;;;;;;;;;;;;;;;;;5018646;28;7177;-67
2023/04/01 23:52:19;;;;;;;;;;;;;;;;;;5018497;28;7939;-66
2023/04/01 23:54:50;;;;;;;;;;;;;;;;;;5018477;28;7362;-66
